Time;durP1;ratioP1;P1;durP2;ratioP2;P2;SDS_P1;SDS_P2;PMS_P1;PMS_P2;Temp;Humidity;BMP_temperature;BMP_pressure;BME280_temperature;BME280_humidity;BME280_pressure;Samples;Min_cycle;Max_cycle;Signal;HPM_P1;HPM_P2
2022/09/09 00:01:33;;;;;;;42.67;40.47;;;;;;;20.87;50.20;100650.22;5034827;28;20041;-74
2022/09/09 00:04:25;;;;;;;44.97;42.45;;;;;;;20.85;50.18;100649.72;5035377;28;20108;-75
2022/09/09 00:06:55;;;;;;;40.28;38.38;;;;;;;20.83;50.15;100643.72;5031575;28;20038;-74
2022/09/09 00:09:26;;;;;;;45.80;43.13;;;;;;;20.81;50.31;100643.22;5052431;28;20521;-74
2022/09/09 00:12:04;;;;;;;43.25;41.15;;;;;;;20.79;50.19;100641.91;5052716;28;20038;-74
2022/09/09 00:14:32;;;;;;;43.92;41.88;;;;;;;20.78;50.12;100640.31;5087010;28;20116;-74
2022/09/09 00:17:06;;;;;;;42.40;40.40;;;;;;;20.74;49.98;100649.16;5054252;28;20029;-74
2022/09/09 00:19:38;;;;;;;41.88;39.83;;;;;;;20.73;50.12;100643.97;5052417;28;20029;-75
2022/09/09 00:22:22;;;;;;;45.00;42.90;;;;;;;20.71;50.33;100636.06;5033525;28;20124;-77
2022/09/09 00:24:56;;;;;;;42.50;40.42;;;;;;;20.69;50.37;100630.09;5033114;28;20041;-73
2022/09/09 00:27:38;;;;;;;42.20;40.10;;;;;;;20.65;50.66;100631.81;5034887;28;20085;-73
2022/09/09 00:30:23;;;;;;;42.42;40.42;;;;;;;20.64;50.47;100623.91;5034147;28;20033;-74
2022/09/09 00:32:54;;;;;;;42.22;39.67;;;;;;;20.61;50.54;100625.31;5037322;28;20036;-73
2022/09/09 00:35:27;;;;;;;42.35;40.30;;;;;;;20.60;50.58;100622.91;5053974;28;20059;-74
2022/09/09 00:37:56;;;;;;;42.80;40.55;;;;;;;20.58;50.42;100625.97;5052548;28;20369;-74
2022/09/09 00:40:29;;;;;;;43.88;41.78;;;;;;;20.56;50.42;100621.91;5053713;28;20464;-75
2022/09/09 00:43:10;;;;;;;45.50;42.95;;;;;;;20.53;50.31;100626.88;5052322;28;20063;-74
2022/09/09 00:45:53;;;;;;;43.70;41.53;;;;;;;20.52;50.07;100621.72;5052887;28;20083;-74
2022/09/09 00:48:27;;;;;;;42.95;40.55;;;;;;;20.48;50.35;100618.75;5042916;28;20029;-74
2022/09/09 00:51:00;;;;;;;42.75;40.58;;;;;;;20.47;50.66;100619.09;5053544;28;20086;-75
2022/09/09 00:53:49;;;;;;;43.45;41.35;;;;;;;20.46;50.69;100614.69;5053287;28;20168;-75
2022/09/09 00:56:21;;;;;;;42.42;40.40;;;;;;;20.43;50.65;100616.13;5053582;28;20040;-75
2022/09/09 00:59:07;;;;;;;43.72;41.53;;;;;;;20.42;50.73;100619.22;5052020;28;20032;-74
2022/09/09 01:01:35;;;;;;;41.92;39.83;;;;;;;20.39;50.27;100614.34;5045679;28;20061;-74
2022/09/09 01:04:04;;;;;;;41.10;39.08;;;;;;;20.38;50.00;100618.22;5033671;28;20055;-75
2022/09/09 01:06:34;;;;;;;42.63;40.42;;;;;;;20.36;50.29;100615.78;5033597;28;20041;-74
2022/09/09 01:09:11;;;;;;;42.97;40.72;;;;;;;20.34;50.38;100609.00;5032945;28;20179;-74
2022/09/09 01:11:55;;;;;;;43.45;41.28;;;;;;;20.31;50.76;100605.75;5032830;28;20033;-75
2022/09/09 01:14:39;;;;;;;41.75;39.75;;;;;;;20.30;50.79;100606.84;5040679;28;20108;-75
2022/09/09 01:17:17;;;;;;;42.28;40.28;;;;;;;20.27;50.61;100602.00;5037396;28;20125;-73
2022/09/09 01:19:42;;;;;;;44.63;42.42;;;;;;;20.26;50.72;100603.13;5053408;28;20112;-74
2022/09/09 01:22:35;;;;;;;42.97;40.67;;;;;;;20.24;50.94;100599.88;5052822;28;20105;-74
2022/09/09 01:25:19;;;;;;;42.35;40.35;;;;;;;20.22;50.60;100596.63;5050846;28;20040;-74
2022/09/09 01:27:48;;;;;;;42.38;40.17;;;;;;;20.20;50.55;100589.84;5032700;28;20045;-74
2022/09/09 01:30:16;;;;;;;41.97;39.88;;;;;;;20.19;50.47;100586.28;5033402;28;20045;-73
2022/09/09 01:32:49;;;;;;;41.88;39.63;;;;;;;20.16;51.03;100578.69;5031276;28;20029;-75
2022/09/09 01:36:00;;;;;;;41.08;39.05;;;;;;;20.15;51.02;100585.28;5033154;28;20032;-75
2022/09/09 01:38:27;;;;;;;40.53;38.53;;;;;;;20.14;50.88;100580.13;5052161;28;20603;-73
2022/09/09 01:40:53;;;;;;;43.72;41.63;;;;;;;20.12;50.57;100579.63;5051995;28;20068;-75
2022/09/09 01:43:23;;;;;;;43.58;41.17;;;;;;;20.10;50.78;100577.97;5042402;28;20069;-74
2022/09/09 01:45:53;;;;;;;42.40;40.20;;;;;;;20.09;50.87;100572.81;5032788;28;20110;-74
2022/09/09 01:48:21;;;;;;;41.85;39.75;;;;;;;20.07;50.90;100577.81;5036753;28;20032;-74
2022/09/09 01:50:46;;;;;;;43.00;40.67;;;;;;;20.05;50.99;100575.38;5034414;28;20046;-74
2022/09/09 01:53:13;;;;;;;42.47;40.38;;;;;;;20.04;50.90;100570.22;5036480;28;20110;-74
2022/09/09 01:55:41;;;;;;;41.78;39.58;;;;;;;20.03;51.16;100565.81;5032197;28;20025;-74
2022/09/09 01:58:19;;;;;;;39.90;37.90;;;;;;;20.01;51.21;100573.56;5032938;28;20488;-74
2022/09/09 02:00:54;;;;;;;42.22;39.75;;;;;;;20.00;50.79;100563.72;5050184;28;20044;-74
2022/09/09 02:03:26;;;;;;;41.53;39.42;;;;;;;19.99;50.63;100564.84;5051942;28;20550;-74
2022/09/09 02:06:17;;;;;;;43.30;40.10;;;;;;;19.97;51.10;100578.84;5050434;28;20028;-74
2022/09/09 02:08:46;;;;;;;43.63;41.47;;;;;;;19.95;50.97;100566.56;5034837;28;20037;-74
2022/09/09 02:11:18;;;;;;;43.58;41.17;;;;;;;19.93;50.77;100571.56;5032321;28;20060;-75
2022/09/09 02:13:45;;;;;;;41.50;39.42;;;;;;;19.92;50.72;100567.19;5032358;28;20090;-74
2022/09/09 02:16:18;;;;;;;41.77;39.67;;;;;;;19.90;50.80;100570.25;5047629;28;20065;-74
2022/09/09 02:19:02;;;;;;;42.05;39.95;;;;;;;19.88;50.81;100567.81;5032032;28;20481;-74
2022/09/09 02:21:30;;;;;;;42.22;39.95;;;;;;;19.86;51.16;100564.59;5031176;28;20040;-74
2022/09/09 02:23:59;;;;;;;42.03;39.85;;;;;;;19.84;50.99;100555.03;5031085;28;20051;-73
2022/09/09 02:26:26;;;;;;;40.60;38.55;;;;;;;19.82;50.80;100558.09;5032320;28;20045;-74
2022/09/09 02:28:55;;;;;;;41.50;39.42;;;;;;;19.81;50.79;100561.16;5051299;28;20118;-74
2022/09/09 02:31:24;;;;;;;41.63;39.53;;;;;;;19.80;51.33;100554.03;5050804;28;20393;-74
2022/09/09 02:33:55;;;;;;;;;;;;;;;19.79;50.72;100557.91;5050500;28;20115;-75
2022/09/09 02:36:23;;;;;;;39.42;37.22;;;;;;;19.76;50.81;100551.13;5052177;28;19909;-74
2022/09/09 02:38:52;;;;;;;40.78;38.65;;;;;;;19.75;51.08;100557.69;5031894;28;20033;-75
2022/09/09 02:41:25;;;;;;;43.75;41.22;;;;;;;19.74;50.88;100550.59;5046449;28;20036;-74
2022/09/09 02:43:51;;;;;;;40.60;38.42;;;;;;;19.73;51.06;100549.00;5050125;28;20167;-74
2022/09/09 02:46:29;;;;;;;38.58;36.67;;;;;;;19.71;50.99;100545.75;5066908;28;20123;-74
2022/09/09 02:48:59;;;;;;;41.50;39.50;;;;;;;19.70;50.93;100544.09;5050137;28;20056;-74
2022/09/09 02:51:57;;;;;;;38.25;36.25;;;;;;;19.69;51.35;100547.19;5051615;28;20111;-74
2022/09/09 02:54:30;;;;;;;39.20;37.20;;;;;;;19.66;50.97;100554.06;5050470;28;20029;-74
2022/09/09 02:57:04;;;;;;;41.47;38.67;;;;;;;19.64;51.19;100551.59;5051221;28;20524;-75
2022/09/09 02:59:30;;;;;;;40.60;38.55;;;;;;;19.63;51.40;100547.25;5030565;28;20033;-75
2022/09/09 03:01:56;;;;;;;40.97;38.83;;;;;;;19.64;51.29;100548.06;5047052;28;20067;-74
2022/09/09 03:04:21;;;;;;;39.40;37.50;;;;;;;19.62;51.47;100553.84;5052060;28;20075;-74
2022/09/09 03:06:47;;;;;;;40.65;37.60;;;;;;;19.61;51.38;100559.66;5051515;28;20039;-74
2022/09/09 03:09:12;;;;;;;39.63;37.38;;;;;;;19.59;51.01;100561.88;5050141;28;20037;-73
2022/09/09 03:11:38;;;;;;;39.38;37.10;;;;;;;19.58;51.43;100565.72;5050171;28;20033;-73
2022/09/09 03:14:04;;;;;;;39.50;37.28;;;;;;;19.56;51.34;100559.75;5039700;28;20055;-73
2022/09/09 03:16:29;;;;;;;39.28;37.28;;;;;;;19.55;51.55;100561.66;5031934;28;20037;-74
2022/09/09 03:18:55;;;;;;;40.47;38.38;;;;;;;19.54;51.26;100557.31;5031554;28;20458;-74
2022/09/09 03:21:20;;;;;;;40.15;37.95;;;;;;;19.53;51.36;100563.94;5031461;28;20041;-74
2022/09/09 03:23:46;;;;;;;40.25;38.13;;;;;;;19.51;51.48;100563.41;5033475;28;20409;-75
2022/09/09 03:26:11;;;;;;;39.72;37.53;;;;;;;19.50;51.40;100569.19;5035445;28;20136;-74
2022/09/09 03:28:37;;;;;;;40.08;37.97;;;;;;;19.48;51.12;100564.03;5035526;28;20091;-74
2022/09/09 03:31:05;;;;;;;41.25;38.53;;;;;;;19.46;51.09;100566.25;5030034;28;20033;-74
2022/09/09 03:33:31;;;;;;;39.85;37.83;;;;;;;19.46;51.47;100558.03;5055548;28;20067;-74
2022/09/09 03:35:57;;;;;;;42.75;40.40;;;;;;;19.45;51.16;100556.41;5052958;28;20060;-74
2022/09/09 03:38:26;;;;;;;39.38;37.45;;;;;;;19.43;51.50;100553.19;5053371;28;20041;-75
2022/09/09 03:40:55;;;;;;;40.90;38.60;;;;;;;19.42;51.30;100552.34;5054848;28;20048;-74
2022/09/09 03:43:25;;;;;;;39.72;37.63;;;;;;;19.42;51.45;100546.06;5042080;28;20385;-74
2022/09/09 03:45:51;;;;;;;41.55;39.50;;;;;;;19.40;51.05;100546.41;5034812;28;20033;-74
2022/09/09 03:48:17;;;;;;;40.40;37.70;;;;;;;19.38;51.39;100545.88;5042370;28;20083;-74
2022/09/09 03:50:52;;;;;;;40.10;38.03;;;;;;;19.36;51.47;100550.84;5049650;28;20461;-74
2022/09/09 03:53:19;;;;;;;39.30;36.70;;;;;;;19.35;51.01;100549.25;5038533;28;20469;-74
2022/09/09 03:55:52;;;;;;;40.10;37.83;;;;;;;19.34;51.29;100542.13;5052489;28;20033;-74
2022/09/09 03:58:18;;;;;;;39.47;37.47;;;;;;;19.33;51.37;100546.00;5053611;28;20029;-73
2022/09/09 04:00:59;;;;;;;38.88;36.78;;;;;;;19.32;51.50;100547.09;5054414;28;20032;-73
2022/09/09 04:03:25;;;;;;;38.55;36.60;;;;;;;19.32;51.00;100543.56;5053816;28;20470;-73
2022/09/09 04:05:52;;;;;;;38.97;37.05;;;;;;;19.29;51.45;100541.44;5052940;28;20119;-73
2022/09/09 04:08:18;;;;;;;39.60;37.53;;;;;;;19.29;51.28;100542.22;5054484;28;20068;-73
2022/09/09 04:10:48;;;;;;;40.13;38.13;;;;;;;19.27;51.49;100544.47;5041426;28;20124;-73
2022/09/09 04:13:15;;;;;;;38.72;36.63;;;;;;;19.26;51.44;100542.84;5052892;28;20064;-74
2022/09/09 04:15:42;;;;;;;40.93;38.57;;;;;;;19.26;51.05;100544.78;5041962;28;20436;-74
2022/09/09 04:18:07;;;;;;;42.63;40.25;;;;;;;19.24;51.39;100534.94;5044036;28;20067;-74
2022/09/09 04:20:33;;;;;;;39.30;37.30;;;;;;;19.22;51.24;100539.09;5046729;28;20128;-73
2022/09/09 04:22:59;;;;;;;38.67;36.63;;;;;;;19.22;51.46;100536.34;5052669;28;20025;-73
2022/09/09 04:25:24;;;;;;;37.17;35.22;;;;;;;19.20;51.58;100533.09;5052709;28;20128;-74
2022/09/09 04:27:54;;;;;;;37.40;35.35;;;;;;;19.19;51.68;100535.03;5053901;28;20492;-76
2022/09/09 04:30:20;;;;;;;37.38;35.40;;;;;;;19.17;51.35;100536.47;5053681;28;20040;-74
2022/09/09 04:32:46;;;;;;;38.10;35.75;;;;;;;19.16;51.75;100532.91;5052623;28;20971;-74
2022/09/09 04:35:11;;;;;;;38.70;36.25;;;;;;;19.15;51.70;100534.06;5030839;28;20091;-74
2022/09/09 04:37:37;;;;;;;38.72;36.55;;;;;;;19.15;51.50;100533.22;5049838;28;20202;-74
2022/09/09 04:40:02;;;;;;;39.78;37.13;;;;;;;19.14;51.59;100523.38;5016571;28;20037;-73
2022/09/09 04:42:28;;;;;;;38.95;35.95;;;;;;;19.12;51.66;100525.63;5033051;28;20026;-74
2022/09/09 04:44:54;;;;;;;38.03;36.10;;;;;;;19.11;51.44;100524.00;5032495;28;20060;-74
2022/09/09 04:47:19;;;;;;;39.30;37.40;;;;;;;19.11;51.32;100521.28;5032578;28;20029;-74
2022/09/09 04:49:44;;;;;;;39.33;36.83;;;;;;;19.09;51.38;100515.28;5034161;28;20026;-75
2022/09/09 04:52:10;;;;;;;39.63;37.28;;;;;;;19.08;51.75;100519.94;5034191;28;20033;-73
2022/09/09 04:54:35;;;;;;;37.25;35.35;;;;;;;19.08;51.27;100516.41;5032381;28;20057;-73
2022/09/09 04:57:00;;;;;;;38.85;36.85;;;;;;;19.06;51.38;100516.69;5035606;28;20435;-72
2022/09/09 04:59:26;;;;;;;37.15;35.25;;;;;;;19.05;51.65;100514.25;5052007;28;20130;-72
2022/09/09 05:01:51;;;;;;;37.20;35.30;;;;;;;19.03;51.78;100512.66;5052124;28;20036;-73
2022/09/09 05:04:16;;;;;;;37.67;35.40;;;;;;;19.03;51.70;100506.38;5053088;28;20033;-73
2022/09/09 05:06:42;;;;;;;37.45;35.42;;;;;;;19.01;51.71;100506.66;5053164;28;20029;-73
2022/09/09 05:09:08;;;;;;;38.38;36.30;;;;;;;19.01;51.47;100505.84;5051550;28;20113;-74
2022/09/09 05:11:38;;;;;;;37.13;35.10;;;;;;;19.00;51.44;100507.00;5053200;28;20146;-73
2022/09/09 05:14:04;;;;;;;38.38;36.17;;;;;;;18.99;51.83;100502.63;5050096;28;20116;-74
2022/09/09 05:16:30;;;;;;;38.78;36.20;;;;;;;18.97;51.83;100505.63;5044865;28;20036;-74
2022/09/09 05:18:55;;;;;;;38.88;36.47;;;;;;;18.97;51.77;100515.78;5023585;28;20040;-75
2022/09/09 05:21:22;;;;;;;39.17;36.97;;;;;;;18.96;51.48;100512.25;5052256;28;20104;-75
2022/09/09 05:23:48;;;;;;;39.40;36.58;;;;;;;18.95;51.65;100510.63;5051724;28;20024;-73
2022/09/09 05:26:16;;;;;;;38.63;36.33;;;;;;;18.94;51.85;100514.47;5038085;28;20106;-73
2022/09/09 05:28:42;;;;;;;36.80;34.63;;;;;;;18.95;52.12;100509.78;5033509;28;20116;-74
2022/09/09 05:31:11;;;;;;;39.42;37.28;;;;;;;18.93;51.76;100509.31;5032716;28;20120;-74
2022/09/09 05:33:36;;;;;;;38.53;36.42;;;;;;;18.91;52.02;100512.34;5033294;28;20062;-74
2022/09/09 05:36:05;;;;;;;39.33;37.00;;;;;;;18.91;52.19;100511.53;5036216;28;20418;-74
2022/09/09 05:38:32;;;;;;;36.33;34.63;;;;;;;18.91;52.17;100519.75;5052664;28;20029;-74
2022/09/09 05:40:57;;;;;;;38.17;35.67;;;;;;;18.89;51.98;100514.56;5052404;28;20051;-74
2022/09/09 05:43:23;;;;;;;37.45;35.28;;;;;;;18.89;52.01;100520.03;5052638;28;20552;-74
2022/09/09 05:46:05;;;;;;;37.97;36.08;;;;;;;18.87;51.94;100516.78;5052011;28;20029;-74
2022/09/09 05:48:34;;;;;;;37.65;35.35;;;;;;;18.88;51.83;100514.88;5069862;28;20025;-74
2022/09/09 05:51:00;;;;;;;36.80;34.88;;;;;;;18.86;51.83;100517.13;5031698;28;20381;-75
2022/09/09 05:53:32;;;;;;;37.05;35.22;;;;;;;18.86;51.91;100515.19;5051259;28;20444;-74
2022/09/09 05:55:59;;;;;;;36.72;34.80;;;;;;;18.85;52.24;100508.09;5051016;28;20374;-79
2022/09/09 05:58:25;;;;;;;37.05;35.25;;;;;;;18.84;52.27;100520.16;5052432;28;20056;-75
2022/09/09 06:00:50;;;;;;;36.60;34.67;;;;;;;18.85;52.15;100515.47;5051220;28;20071;-73
2022/09/09 06:03:16;;;;;;;37.97;35.80;;;;;;;18.84;51.98;100519.34;5050377;28;20067;-73
2022/09/09 06:05:42;;;;;;;36.15;33.90;;;;;;;18.83;52.20;100520.47;5051594;28;20048;-74
2022/09/09 06:08:07;;;;;;;38.80;36.40;;;;;;;18.82;52.01;100516.91;5051670;28;20388;-73
2022/09/09 06:10:33;;;;;;;37.30;35.13;;;;;;;18.83;52.04;100521.28;5049886;28;20037;-74
2022/09/09 06:12:59;;;;;;;37.53;35.55;;;;;;;18.82;52.25;100525.09;5051946;28;20039;-79
2022/09/09 06:15:25;;;;;;;37.45;35.15;;;;;;;18.82;52.42;100522.38;5044677;28;20037;-73
2022/09/09 06:17:56;;;;;;;37.42;35.55;;;;;;;18.81;52.55;100521.56;5032242;28;20037;-74
2022/09/09 06:20:22;;;;;;;37.10;35.00;;;;;;;18.81;52.08;100520.75;5041080;28;20546;-74
2022/09/09 06:22:48;;;;;;;36.13;34.33;;;;;;;18.80;52.29;100519.94;5050673;28;20037;-73
2022/09/09 06:25:14;;;;;;;39.35;37.00;;;;;;;18.80;52.22;100513.69;5050509;28;20033;-74
2022/09/09 06:27:39;;;;;;;36.95;34.80;;;;;;;18.79;52.36;100517.50;5051790;28;20155;-74
2022/09/09 06:30:05;;;;;;;38.35;36.13;;;;;;;18.78;52.44;100516.69;5051456;28;20056;-74
2022/09/09 06:32:31;;;;;;;38.03;35.15;;;;;;;18.79;52.18;100518.31;5051668;28;20102;-74
2022/09/09 06:34:56;;;;;;;38.00;35.97;;;;;;;18.78;52.53;100516.69;5042649;28;20037;-73
2022/09/09 06:37:23;;;;;;;38.58;35.53;;;;;;;18.78;52.75;100513.97;5031925;28;20045;-74
2022/09/09 06:39:49;;;;;;;37.25;35.10;;;;;;;18.78;52.53;100513.16;5049168;28;20036;-74
2022/09/09 06:42:15;;;;;;;37.90;35.45;;;;;;;18.77;52.38;100517.84;5045088;28;20492;-74
2022/09/09 06:44:41;;;;;;;36.70;34.85;;;;;;;18.77;52.72;100509.63;5047341;28;20393;-73
2022/09/09 06:47:06;;;;;;;37.15;35.13;;;;;;;18.77;53.02;100508.78;5046952;28;20025;-72
2022/09/09 06:49:31;;;;;;;37.65;35.50;;;;;;;18.77;52.70;100506.06;5047816;28;20116;-73
2022/09/09 06:51:57;;;;;;;38.15;35.50;;;;;;;18.76;52.46;100510.72;5051579;28;20053;-73
2022/09/09 06:54:23;;;;;;;37.33;35.42;;;;;;;18.75;52.76;100506.38;5049895;28;20037;-74
2022/09/09 06:56:49;;;;;;;38.78;36.47;;;;;;;18.77;53.11;100512.34;5049757;28;20033;-72
2022/09/09 06:59:15;;;;;;;38.25;36.08;;;;;;;18.77;53.16;100506.06;5050842;28;20037;-72
2022/09/09 07:01:43;;;;;;;38.03;35.55;;;;;;;18.77;52.92;100508.78;5051470;28;20044;-72
2022/09/09 07:04:10;;;;;;;37.28;35.03;;;;;;;18.77;52.88;100508.78;5031742;28;20462;-72
2022/09/09 07:06:39;;;;;;;35.92;34.03;;;;;;;18.77;53.03;100509.63;5031834;28;20171;-73
2022/09/09 07:09:08;;;;;;;36.35;34.47;;;;;;;18.78;52.77;100513.16;5031354;28;20026;-73
2022/09/09 07:11:38;;;;;;;37.45;35.50;;;;;;;18.78;52.97;100504.94;5031870;28;20040;-73
2022/09/09 07:14:03;;;;;;;35.83;34.03;;;;;;;18.77;53.22;100515.09;5031630;28;20465;-75
2022/09/09 07:16:29;;;;;;;39.45;37.42;;;;;;;18.77;53.28;100506.88;5049920;28;20040;-74
2022/09/09 07:18:57;;;;;;;36.08;34.13;;;;;;;18.78;53.39;100508.50;5049331;28;20396;-74
2022/09/09 07:21:24;;;;;;;36.00;33.78;;;;;;;18.78;53.16;100513.16;5082076;28;20065;-74
2022/09/09 07:23:50;;;;;;;34.92;33.03;;;;;;;18.78;52.98;100515.91;5050986;28;20029;-73
2022/09/09 07:26:19;;;;;;;37.45;35.55;;;;;;;18.78;53.42;100507.69;5039981;28;20049;-73
2022/09/09 07:28:45;;;;;;;36.10;34.30;;;;;;;18.79;53.39;100512.03;5036439;28;20033;-74
2022/09/09 07:31:20;;;;;;;37.67;34.97;;;;;;;18.79;53.69;100495.63;5050378;28;20036;-73
2022/09/09 07:33:45;;;;;;;35.60;33.65;;;;;;;18.80;53.33;100514.47;5050929;28;20075;-73
2022/09/09 07:36:23;;;;;;;37.05;35.00;;;;;;;18.81;54.02;100515.28;5049431;28;20025;-74
2022/09/09 07:38:54;;;;;;;34.75;33.05;;;;;;;18.81;53.48;100501.59;5051040;28;20021;-73
2022/09/09 07:41:24;;;;;;;36.33;33.92;;;;;;;18.82;53.95;100505.94;5050573;28;20033;-72
2022/09/09 07:43:51;;;;;;;37.97;35.92;;;;;;;18.83;53.89;100513.06;5051075;28;20029;-72
2022/09/09 07:46:19;;;;;;;36.85;34.65;;;;;;;18.83;53.45;100504.84;5049952;28;20078;-73
2022/09/09 07:48:52;;;;;;;34.75;32.70;;;;;;;18.84;53.83;100503.72;5046398;28;20026;-73
2022/09/09 07:51:34;;;;;;;37.05;34.35;;;;;;;18.84;53.99;100503.72;5049451;28;20029;-72
2022/09/09 07:54:05;;;;;;;37.65;35.30;;;;;;;18.85;53.43;100499.88;5050952;28;20029;-73
2022/09/09 07:56:32;;;;;;;35.30;33.00;;;;;;;18.86;53.88;100497.97;5035801;28;20481;-73
2022/09/09 07:58:59;;;;;;;37.00;34.80;;;;;;;18.86;54.14;100501.50;5031027;28;20037;-73
2022/09/09 08:01:29;;;;;;;36.05;34.25;;;;;;;18.88;53.72;100496.53;5030819;28;20044;-72
2022/09/09 08:04:01;;;;;;;37.08;34.80;;;;;;;18.89;53.98;100500.09;5031417;28;20040;-72
2022/09/09 08:06:28;;;;;;;35.45;33.45;;;;;;;18.91;54.17;100503.31;5030405;28;20039;-73
2022/09/09 08:08:54;;;;;;;36.67;34.78;;;;;;;18.92;53.99;100513.97;5032168;28;20035;-73
2022/09/09 08:11:22;;;;;;;38.03;35.83;;;;;;;18.93;53.79;100510.13;5033653;28;20112;-73
2022/09/09 08:13:49;;;;;;;36.03;34.30;;;;;;;18.95;53.85;100512.53;5034636;28;20368;-73
2022/09/09 08:16:18;;;;;;;37.67;35.67;;;;;;;18.95;54.19;100510.63;5034518;28;20030;-73
2022/09/09 08:18:44;;;;;;;;;;;;;;;18.97;54.18;100515.78;5035325;28;20033;-73
2022/09/09 08:21:11;;;;;;;35.28;33.45;;;;;;;18.96;54.04;100522.38;5034172;28;19917;-73
2022/09/09 08:23:39;;;;;;;38.20;36.10;;;;;;;18.96;54.03;100520.47;5034297;28;20544;-72
2022/09/09 08:26:11;;;;;;;35.90;34.20;;;;;;;18.98;54.02;100523.72;5034541;28;20477;-76
2022/09/09 08:28:36;;;;;;;35.42;33.72;;;;;;;18.99;54.22;100516.28;5034655;28;20033;-73
2022/09/09 08:31:14;;;;;;;35.20;33.38;;;;;;;19.01;54.29;100516.81;5034319;28;20048;-72
2022/09/09 08:33:41;;;;;;;36.50;34.63;;;;;;;19.02;54.21;100516.50;5049686;28;20032;-73
2022/09/09 08:36:09;;;;;;;35.80;33.78;;;;;;;19.04;54.14;100521.66;5053990;28;20028;-72
2022/09/09 08:38:35;;;;;;;35.65;33.70;;;;;;;19.06;53.99;100519.44;5036771;28;20068;-72
2022/09/09 08:41:19;;;;;;;37.65;35.25;;;;;;;19.07;54.50;100526.53;5066267;28;20037;-73
2022/09/09 08:43:47;;;;;;;37.63;35.53;;;;;;;19.08;54.44;100525.44;5034149;28;20033;-73
2022/09/09 08:46:30;;;;;;;38.83;36.20;;;;;;;19.09;54.32;100524.31;5049287;28;20401;-73
2022/09/09 08:49:16;;;;;;;37.42;35.25;;;;;;;19.11;54.62;100532.22;5053591;28;20478;-74
2022/09/09 08:51:42;;;;;;;38.17;35.67;;;;;;;19.11;54.47;100532.22;5054933;28;20025;-75
2022/09/09 08:54:09;;;;;;;36.70;34.65;;;;;;;19.11;54.40;100527.56;5035475;28;20091;-74
2022/09/09 08:56:35;;;;;;;36.83;34.80;;;;;;;19.13;54.19;100532.72;5053286;28;20029;-74
2022/09/09 08:59:03;;;;;;;39.10;37.13;;;;;;;19.14;54.25;100531.59;5053692;28;20032;-73
2022/09/09 09:01:52;;;;;;;38.13;35.90;;;;;;;19.14;54.47;100528.88;5052924;28;20044;-73
2022/09/09 09:04:45;;;;;;;39.90;37.75;;;;;;;19.16;54.60;100540.31;5052467;28;20033;-71
2022/09/09 09:07:16;;;;;;;36.85;35.13;;;;;;;19.16;54.21;100545.81;5053292;28;20051;-73
2022/09/09 09:10:02;;;;;;;40.30;37.45;;;;;;;19.18;55.03;100540.84;5048494;28;20454;-72
2022/09/09 09:12:33;;;;;;;38.40;36.50;;;;;;;19.19;54.58;100553.41;5049325;28;20028;-73
2022/09/09 09:14:59;;;;;;;37.92;35.50;;;;;;;19.18;54.38;100555.34;5034006;28;20030;-73
2022/09/09 09:17:27;;;;;;;38.38;36.28;;;;;;;19.20;54.56;100564.06;5033019;28;20099;-71
2022/09/09 09:19:53;;;;;;;36.45;34.55;;;;;;;19.22;54.39;100561.00;5032809;28;20477;-72
2022/09/09 09:22:31;;;;;;;40.13;38.00;;;;;;;19.22;54.41;100556.31;5032797;28;20044;-72
2022/09/09 09:25:17;;;;;;;37.30;34.90;;;;;;;19.24;54.82;100562.31;5039046;28;20029;-72
2022/09/09 09:28:11;;;;;;;37.67;35.38;;;;;;;19.26;54.67;100561.22;5051480;28;20307;-72
2022/09/09 09:30:42;;;;;;;38.08;36.15;;;;;;;19.27;54.79;100558.16;5048537;28;20080;-72
2022/09/09 09:33:32;;;;;;;38.20;35.90;;;;;;;19.28;54.96;100556.22;5051572;28;20163;-72
2022/09/09 09:35:59;;;;;;;37.30;35.40;;;;;;;19.28;54.51;100559.78;5052220;28;20029;-73
2022/09/09 09:38:27;;;;;;;38.13;36.25;;;;;;;19.28;54.79;100557.06;5051267;28;20498;-73
2022/09/09 09:41:00;;;;;;;37.70;35.70;;;;;;;19.29;54.45;100558.66;5051203;28;20389;-73
2022/09/09 09:43:31;;;;;;;39.65;37.05;;;;;;;19.30;54.65;100560.28;5050684;28;20465;-73
2022/09/09 09:45:57;;;;;;;37.83;35.78;;;;;;;19.31;54.63;100559.19;5052333;28;20036;-74
2022/09/09 09:48:24;;;;;;;40.45;38.15;;;;;;;19.32;54.77;100558.06;5051239;28;20032;-74
2022/09/09 09:50:54;;;;;;;38.83;36.53;;;;;;;19.33;54.86;100564.38;5050501;28;20033;-73
2022/09/09 09:53:21;;;;;;;40.33;37.63;;;;;;;19.35;54.81;100559.38;5052120;28;20139;-73
2022/09/09 09:56:12;;;;;;;37.80;35.90;;;;;;;19.36;54.83;100561.81;5053295;28;20040;-72
2022/09/09 09:58:44;;;;;;;38.20;35.85;;;;;;;19.36;54.71;100558.25;5049713;28;20649;-73
2022/09/09 10:01:33;;;;;;;37.72;35.30;;;;;;;19.38;55.11;100556.84;5044634;28;20408;-72
2022/09/09 10:04:18;;;;;;;39.05;36.47;;;;;;;19.39;55.23;100560.38;5051999;28;20056;-72
2022/09/09 10:06:44;;;;;;;39.83;37.40;;;;;;;19.39;54.92;100555.72;5052276;28;20033;-73
2022/09/09 10:09:22;;;;;;;37.75;35.75;;;;;;;19.40;55.31;100553.78;5051902;28;20029;-73
2022/09/09 10:12:14;;;;;;;36.55;34.65;;;;;;;19.41;54.77;100558.97;5051477;28;20036;-73
2022/09/09 10:14:45;;;;;;;39.50;36.83;;;;;;;19.41;54.79;100563.63;5051412;28;20040;-73
2022/09/09 10:17:27;;;;;;;39.08;36.67;;;;;;;19.42;55.30;100565.25;5052240;28;20036;-72
2022/09/09 10:20:19;;;;;;;37.30;34.75;;;;;;;19.42;55.38;100565.25;5052095;28;20036;-73
2022/09/09 10:22:50;;;;;;;38.05;36.05;;;;;;;19.44;55.29;100563.81;5050521;28;20025;-73
2022/09/09 10:25:21;;;;;;;37.33;35.30;;;;;;;19.46;55.51;100563.53;5032589;28;20026;-72
2022/09/09 10:28:10;;;;;;;38.38;36.00;;;;;;;19.46;55.59;100556.13;5032053;28;20045;-73
2022/09/09 10:30:54;;;;;;;38.47;36.25;;;;;;;19.48;55.72;100563.19;5032367;28;20513;-73
2022/09/09 10:33:34;;;;;;;37.83;35.67;;;;;;;19.48;56.27;100566.78;5031257;28;20152;-76
2022/09/09 10:36:21;;;;;;;38.90;36.42;;;;;;;19.48;55.93;100561.28;5031066;28;20067;-73
2022/09/09 10:39:36;;;;;;;37.33;35.53;;;;;;;19.50;56.02;100558.22;5032149;28;20030;-72
2022/09/09 10:42:14;;;;;;;39.25;36.90;;;;;;;19.51;56.31;100562.63;5033929;28;20032;-71
2022/09/09 10:44:42;;;;;;;36.35;34.55;;;;;;;19.50;56.16;100559.03;5046336;28;20113;-73
2022/09/09 10:47:07;;;;;;;37.13;35.13;;;;;;;19.51;56.19;100557.94;5050635;28;20029;-73
2022/09/09 10:50:00;;;;;;;39.65;37.38;;;;;;;19.53;56.23;100555.72;5051045;28;20110;-73
2022/09/09 10:52:36;;;;;;;38.30;36.22;;;;;;;19.54;56.57;100556.50;5051105;28;20095;-73
2022/09/09 10:55:17;;;;;;;39.08;36.88;;;;;;;19.56;55.92;100567.97;5051395;28;20029;-73
2022/09/09 10:57:47;;;;;;;38.17;36.30;;;;;;;19.56;56.47;100563.31;5050240;28;20417;-73
2022/09/09 11:00:20;;;;;;;38.33;36.00;;;;;;;19.58;56.49;100555.59;5052187;28;20036;-72
2022/09/09 11:02:52;;;;;;;37.67;35.78;;;;;;;19.60;56.28;100549.78;5050164;28;20087;-73
2022/09/09 11:05:21;;;;;;;38.50;36.40;;;;;;;19.63;56.00;100554.66;5050848;28;20436;-72
2022/09/09 11:07:55;;;;;;;37.10;35.22;;;;;;;19.64;56.00;100550.81;5041180;28;20036;-73
2022/09/09 11:10:52;;;;;;;39.22;37.22;;;;;;;19.67;56.80;100561.19;5031699;28;20065;-73
2022/09/09 11:13:37;;;;;;;38.63;36.67;;;;;;;19.67;56.77;100556.50;5033251;28;20041;-74
2022/09/09 11:16:19;;;;;;;36.90;35.10;;;;;;;19.69;56.59;100558.94;5051238;28;20045;-73
2022/09/09 11:18:46;;;;;;;38.90;36.40;;;;;;;19.70;56.16;100557.00;5049881;28;20511;-73
2022/09/09 11:21:28;;;;;;;39.42;37.42;;;;;;;19.71;56.74;100564.13;5050985;28;20079;-76
2022/09/09 11:24:04;;;;;;;39.65;37.33;;;;;;;19.73;56.54;100556.38;5051289;28;20029;-73
2022/09/09 11:26:41;;;;;;;39.65;37.58;;;;;;;19.75;56.90;100556.88;5049478;28;20135;-72
2022/09/09 11:29:28;;;;;;;39.28;37.25;;;;;;;19.75;56.95;100556.88;5051239;28;20131;-73